Time;durP1;ratioP1;P1;durP2;ratioP2;P2;SDS_P1;SDS_P2;PMS_P1;PMS_P2;Temp;Humidity;BMP_temperature;BMP_pressure;BME280_temperature;BME280_humidity;BME280_pressure;Samples;Min_cycle;Max_cycle;Signal;HPM_P1;HPM_P2
2021/03/17 00:01:40;;;;;;;;;;;;;;;11.65;43.97;101716.25;4828960;29;20076;-78
2021/03/17 00:04:26;;;;;;;;;;;;;;;11.59;44.01;101721.66;4830508;29;20074;-78
2021/03/17 00:07:12;;;;;;;;;;;;;;;11.57;43.98;101724.31;4833385;29;19972;-78
2021/03/17 00:09:57;;;;;;;;;;;;;;;11.55;44.06;101727.91;4830483;29;20334;-77
2021/03/17 00:12:43;;;;;;;;;;;;;;;11.52;43.90;101726.16;4832375;29;19980;-78
2021/03/17 00:15:29;;;;;;;;;;;;;;;11.52;43.93;101735.91;4824890;29;20637;-78
2021/03/17 00:18:46;;;;;;;;;;;;;;;11.46;43.96;101736.84;4829872;29;19983;-77
2021/03/17 00:21:33;;;;;;;;;;;;;;;11.42;44.18;101737.81;4827439;29;19935;-77
2021/03/17 00:24:18;;;;;;;;;;;;;;;11.42;43.92;101740.47;4830937;29;19943;-78
2021/03/17 00:27:05;;;;;;;;;;;;;;;11.38;44.12;101747.56;4831929;29;19954;-77
2021/03/17 00:29:50;;;;;;;;;;;;;;;11.35;43.98;101749.41;4823084;29;19948;-78
2021/03/17 00:32:36;;;;;;;;;;;;;;;11.30;44.56;101749.47;4832428;29;19984;-78
2021/03/17 00:35:22;;;;;;;;;;;;;;;11.29;44.09;101740.66;4830041;29;20068;-78
2021/03/17 00:38:08;;;;;;;;;;;;;;;11.23;44.57;101745.16;4835275;29;20397;-78
2021/03/17 00:40:53;;;;;;;;;;;;;;;11.24;44.49;101747.78;4827467;29;20039;-78
2021/03/17 00:44:04;;;;;;;;;;;;;;;11.18;44.50;101749.66;4828512;29;20262;-77
2021/03/17 00:46:49;;;;;;;;;;;;;;;11.15;44.66;101742.63;4829191;29;19936;-77
2021/03/17 00:49:21;;;;;;;;;;;;;;;11.11;44.28;101749.72;4836801;29;19932;-78
2021/03/17 00:51:52;;;;;;;;;;;;;;;11.09;44.74;101748.84;4828619;29;20001;-78
2021/03/17 00:54:38;;;;;;;;;;;;;;;11.10;44.48;101747.09;4830464;29;20247;-78
2021/03/17 00:57:34;;;;;;;;;;;;;;;11.09;44.34;101748.00;4810961;29;19946;-77
2021/03/17 01:00:02;;;;;;;;;;;;;;;11.06;44.74;101750.69;4816267;29;19933;-78
2021/03/17 01:02:29;;;;;;;;;;;;;;;11.00;44.88;101746.34;4837190;29;19936;-78
2021/03/17 01:04:57;;;;;;;;;;;;;;;10.97;44.78;101746.38;4829186;29;20026;-77
2021/03/17 01:07:24;;;;;;;;;;;;;;;10.93;44.88;101742.88;4832330;29;20442;-77
2021/03/17 01:09:51;;;;;;;;;;;;;;;10.94;44.84;101743.78;4822088;29;19933;-77
2021/03/17 01:12:18;;;;;;;;;;;;;;;10.92;44.85;101742.91;4818435;29;19928;-77
2021/03/17 01:14:45;;;;;;;;;;;;;;;10.88;45.15;101742.06;4828463;29;19932;-78
2021/03/17 01:17:12;;;;;;;;;;;;;;;10.86;44.65;101745.63;4829243;29;20375;-78
2021/03/17 01:19:39;;;;;;;;;;;;;;;10.84;44.99;101743.00;4830124;29;20099;-78
2021/03/17 01:22:06;;;;;;;;;;;;;;;10.85;44.99;101749.16;4826909;29;19940;-78
2021/03/17 01:24:33;;;;;;;;;;;;;;;10.83;45.16;101746.56;4823240;29;19933;-78
2021/03/17 01:27:02;;;;;;;;;;;;;;;10.82;44.92;101752.75;4821390;29;19980;-77
2021/03/17 01:29:29;;;;;;;;;;;;;;;10.76;44.86;101747.53;4824046;29;20344;-77
2021/03/17 01:31:55;;;;;;;;;;;;;;;10.75;45.01;101751.94;4830022;29;20041;-77
2021/03/17 01:34:22;;;;;;;;;;;;;;;10.69;44.97;101752.03;4823918;29;19936;-77
2021/03/17 01:36:49;;;;;;;;;;;;;;;10.66;45.52;101751.19;4826361;29;20022;-78
2021/03/17 01:39:16;;;;;;;;;;;;;;;10.66;45.37;101751.19;4821711;29;19928;-77
2021/03/17 01:41:43;;;;;;;;;;;;;;;10.66;45.07;101748.53;4825766;29;20262;-77
2021/03/17 01:44:11;;;;;;;;;;;;;;;10.60;45.26;101749.50;4829641;29;19956;-77
2021/03/17 01:46:42;;;;;;;;;;;;;;;10.56;45.15;101751.28;4825805;29;20051;-77
2021/03/17 01:49:09;;;;;;;;;;;;;;;10.54;45.41;101745.13;4832811;29;20279;-77
2021/03/17 01:51:36;;;;;;;;;;;;;;;10.53;45.09;101753.97;4824453;29;20068;-77
2021/03/17 01:54:04;;;;;;;;;;;;;;;10.51;45.11;101753.09;4822778;29;19932;-77
2021/03/17 01:56:31;;;;;;;;;;;;;;;10.47;45.73;101748.75;4832094;29;20061;-77
2021/03/17 01:58:58;;;;;;;;;;;;;;;10.45;45.28;101751.41;4828032;29;19933;-78
2021/03/17 02:01:26;;;;;;;;;;;;;;;10.45;45.35;101753.16;4832432;29;19930;-77
2021/03/17 02:03:53;;;;;;;;;;;;;;;10.44;45.15;101756.69;4828791;29;19933;-77
2021/03/17 02:06:20;;;;;;;;;;;;;;;10.40;45.86;101754.97;4818900;29;19981;-77
2021/03/17 02:08:47;;;;;;;;;;;;;;;10.39;45.45;101754.13;4825748;29;19953;-78
2021/03/17 02:11:14;;;;;;;;;;;;;;;10.36;45.66;101758.56;4825588;29;20505;-77
2021/03/17 02:14:02;;;;;;;;;;;;;;;10.33;45.49;101753.28;4831091;29;19979;-77
2021/03/17 02:16:30;;;;;;;;;;;;;;;10.32;46.14;101751.50;4825122;29;20263;-77
2021/03/17 02:19:07;;;;;;;;;;;;;;;10.30;45.94;101748.88;4828022;29;20011;-77
2021/03/17 02:21:45;;;;;;;;;;;;;;;10.30;45.59;101740.97;4822697;29;19939;-78
2021/03/17 02:24:17;;;;;;;;;;;;;;;10.25;45.58;101751.56;4834855;29;20015;-78
2021/03/17 02:26:55;;;;;;;;;;;;;;;10.23;45.97;101760.41;4829773;29;20022;-78
2021/03/17 02:29:34;;;;;;;;;;;;;;;10.21;45.94;101749.00;4832790;29;20000;-77
2021/03/17 02:32:08;;;;;;;;;;;;;;;10.16;45.98;101751.66;4829349;29;19975;-78
2021/03/17 02:34:38;;;;;;;;;;;;;;;10.14;45.61;101761.41;4829891;29;20360;-77
2021/03/17 02:37:07;;;;;;;;;;;;;;;10.16;45.96;101756.94;4831173;29;20009;-77
2021/03/17 02:39:35;;;;;;;;;;;;;;;10.09;46.17;101758.78;4829306;29;20359;-77
2021/03/17 02:42:05;;;;;;;;;;;;;;;10.09;46.27;101761.41;4835767;29;19937;-78
2021/03/17 02:44:32;;;;;;;;;;;;;;;10.08;45.97;101761.44;4829931;29;20390;-77
2021/03/17 02:47:00;;;;;;;;;;;;;;;10.06;46.08;101760.56;4830525;29;19936;-78
2021/03/17 02:49:31;;;;;;;;;;;;;;;10.05;46.04;101756.19;4822903;29;19940;-77
2021/03/17 02:51:59;;;;;;;;;;;;;;;10.03;46.28;101758.81;4812526;29;19953;-77
2021/03/17 02:54:27;;;;;;;;;;;;;;;10.01;46.38;101757.09;4815682;29;19964;-78
2021/03/17 02:56:56;;;;;;;;;;;;;;;9.96;46.23;101763.28;4809987;29;19929;-77
2021/03/17 02:59:24;;;;;;;;;;;;;;;9.96;46.17;101773.00;4819846;29;19937;-78
2021/03/17 03:01:52;;;;;;;;;;;;;;;9.91;46.48;101772.16;4808183;29;19967;-78
2021/03/17 03:04:20;;;;;;;;;;;;;;;9.89;46.45;101764.25;4812289;29;19951;-77
2021/03/17 03:06:48;;;;;;;;;;;;;;;9.86;46.38;101764.28;4818424;29;19929;-78
2021/03/17 03:09:17;;;;;;;;;;;;;;;9.87;46.54;101775.72;4814780;29;19943;-78
2021/03/17 03:11:45;;;;;;;;;;;;;;;9.83;46.14;101776.63;4815113;29;19980;-77
2021/03/17 03:14:13;;;;;;;;;;;;;;;9.80;46.39;101781.03;4816213;29;19973;-77
2021/03/17 03:16:41;;;;;;;;;;;;;;;9.78;46.00;101768.72;4811188;29;20395;-77
2021/03/17 03:19:09;;;;;;;;;;;;;;;9.75;45.98;101774.91;4810914;29;19928;-78
2021/03/17 03:21:37;;;;;;;;;;;;;;;9.75;46.61;101774.91;4815941;29;19955;-77
2021/03/17 03:24:04;;;;;;;;;;;;;;;9.75;46.78;101768.78;4814383;29;19943;-77
2021/03/17 03:26:33;;;;;;;;;;;;;;;9.72;46.63;101767.03;4810427;29;20311;-77
2021/03/17 03:29:00;;;;;;;;;;;;;;;9.70;46.42;101773.22;4815617;29;20347;-77
2021/03/17 03:31:27;;;;;;;;;;;;;;;9.66;46.67;101769.69;4813314;29;20024;-77
2021/03/17 03:33:54;;;;;;;;;;;;;;;9.65;46.83;101775.88;4810016;29;20027;-78
2021/03/17 03:36:21;;;;;;;;;;;;;;;9.64;46.66;101776.78;4816614;29;19944;-77
2021/03/17 03:38:48;;;;;;;;;;;;;;;9.62;46.78;101773.25;4812619;29;19932;-77
2021/03/17 03:41:15;;;;;;;;;;;;;;;9.60;46.78;101775.03;4812040;29;19937;-77
2021/03/17 03:43:46;;;;;;;;;;;;;;;9.56;46.58;101770.66;4813104;29;20374;-77
2021/03/17 03:46:30;;;;;;;;;;;;;;;9.53;46.74;101771.53;4809523;29;19933;-77
2021/03/17 03:48:59;;;;;;;;;;;;;;;9.54;46.58;101768.03;4817319;29;20299;-77
2021/03/17 03:51:30;;;;;;;;;;;;;;;9.52;46.49;101783.03;4825089;29;19933;-77
2021/03/17 03:54:08;;;;;;;;;;;;;;;9.49;46.89;101769.81;4828126;29;19928;-77
2021/03/17 03:56:39;;;;;;;;;;;;;;;9.47;46.76;101776.91;4827656;29;19929;-77
2021/03/17 03:59:08;;;;;;;;;;;;;;;9.45;47.10;101783.94;4825520;29;19956;-77
2021/03/17 04:01:39;;;;;;;;;;;;;;;9.44;46.75;101784.81;4829026;29;19959;-77
2021/03/17 04:04:09;;;;;;;;;;;;;;;9.42;46.76;101783.97;4834263;29;21484;-77
2021/03/17 04:06:36;;;;;;;;;;;;;;;9.38;46.70;101788.38;4836235;29;20111;-78
2021/03/17 04:09:04;;;;;;;;;;;;;;;9.37;47.43;101791.03;4833714;29;20465;-77
2021/03/17 04:11:31;;;;;;;;;;;;;;;9.35;46.75;101792.78;4827602;29;19940;-77
2021/03/17 04:14:01;;;;;;;;;;;;;;;9.31;47.12;101789.28;4831245;29;19932;-77
2021/03/17 04:16:29;;;;;;;;;;;;;;;9.29;46.77;101789.31;4824589;29;20107;-78
2021/03/17 04:18:56;;;;;;;;;;;;;;;9.29;46.87;101789.31;4833926;29;20406;-77
2021/03/17 04:21:25;;;;;;;;;;;;;;;9.27;46.92;101788.44;4828931;29;20293;-77
2021/03/17 04:23:54;;;;;;;;;;;;;;;9.26;46.38;101794.59;4830739;29;20034;-77
2021/03/17 04:26:21;;;;;;;;;;;;;;;9.32;46.79;101798.97;4820821;29;20193;-78
2021/03/17 04:28:49;;;;;;;;;;;;;;;9.42;46.26;101800.69;4821201;29;20560;-77
2021/03/17 04:31:16;;;;;;;;;;;;;;;9.34;46.38;101801.59;4832976;29;19938;-77
2021/03/17 04:33:47;;;;;;;;;;;;;;;9.25;47.26;101798.13;4829374;29;20031;-77
2021/03/17 04:36:14;;;;;;;;;;;;;;;9.22;46.99;101811.34;4830709;29;19980;-77
2021/03/17 04:38:45;;;;;;;;;;;;;;;9.17;47.52;101807.84;4830168;29;19933;-77
2021/03/17 04:41:13;;;;;;;;;;;;;;;9.14;46.94;101811.38;4824432;29;19935;-77
2021/03/17 04:43:47;;;;;;;;;;;;;;;9.10;47.45;101812.28;4823521;29;20315;-77
2021/03/17 04:46:14;;;;;;;;;;;;;;;9.07;47.36;101820.19;4828918;29;20358;-77
2021/03/17 04:48:48;;;;;;;;;;;;;;;9.07;47.28;101820.19;4833719;29;20059;-77
2021/03/17 04:51:16;;;;;;;;;;;;;;;9.05;47.57;101831.66;4826913;29;19943;-78
2021/03/17 04:53:46;;;;;;;;;;;;;;;9.02;47.54;101829.03;4827927;29;20248;-78
2021/03/17 04:56:14;;;;;;;;;;;;;;;8.99;47.70;101829.06;4823187;29;20121;-78
2021/03/17 04:58:48;;;;;;;;;;;;;;;8.98;47.38;101828.16;4830658;29;19947;-77
2021/03/17 05:01:15;;;;;;;;;;;;;;;8.95;47.96;101830.81;4829684;29;20468;-78
2021/03/17 05:03:46;;;;;;;;;;;;;;;8.91;47.60;101826.44;4828152;29;20026;-77
2021/03/17 05:06:14;;;;;;;;;;;;;;;8.91;48.10;101834.34;4829946;29;19943;-77
2021/03/17 05:08:45;;;;;;;;;;;;;;;8.89;47.43;101836.09;4828474;29;19967;-77
2021/03/17 05:11:14;;;;;;;;;;;;;;;8.86;47.58;101839.63;4824813;29;19959;-77
2021/03/17 05:14:06;;;;;;;;;;;;;;;8.84;47.75;101848.44;4834797;29;19940;-77
2021/03/17 05:16:33;;;;;;;;;;;;;;;8.78;47.71;101858.13;4827425;29;19933;-77
2021/03/17 05:19:00;;;;;;;;;;;;;;;8.75;47.34;101849.34;4826776;29;19932;-77
2021/03/17 05:21:28;;;;;;;;;;;;;;;8.75;47.87;101857.25;4827788;29;19929;-77
2021/03/17 05:23:56;;;;;;;;;;;;;;;8.74;47.71;101858.13;4824236;29;20009;-77
2021/03/17 05:26:23;;;;;;;;;;;;;;;8.72;47.43;101867.81;4831847;29;20090;-77
2021/03/17 05:28:51;;;;;;;;;;;;;;;8.70;47.91;101870.44;4812172;29;20090;-77
2021/03/17 05:31:18;;;;;;;;;;;;;;;8.71;47.39;101866.94;4827820;29;20016;-77
2021/03/17 05:33:47;;;;;;;;;;;;;;;8.74;47.37;101866.06;4826711;29;20329;-77
2021/03/17 05:36:14;;;;;;;;;;;;;;;8.76;47.07;101867.81;4823696;29;19968;-77
2021/03/17 05:38:45;;;;;;;;;;;;;;;8.80;47.19;101874.84;4830542;29;20407;-77
2021/03/17 05:41:12;;;;;;;;;;;;;;;8.79;47.07;101874.84;4829295;29;19929;-77
2021/03/17 05:43:46;;;;;;;;;;;;;;;8.89;47.04;101871.31;4831237;29;19932;-78
2021/03/17 05:46:14;;;;;;;;;;;;;;;9.01;46.29;101869.50;4825793;29;20180;-77
2021/03/17 05:49:06;;;;;;;;;;;;;;;9.08;46.47;101877.41;4827750;29;19944;-77
2021/03/17 05:51:34;;;;;;;;;;;;;;;9.13;46.36;101869.47;4804857;29;19955;-77
2021/03/17 05:54:06;;;;;;;;;;;;;;;9.18;45.15;101866.81;4820771;29;19935;-77
2021/03/17 05:56:34;;;;;;;;;;;;;;;9.22;44.41;101879.09;4833840;29;19940;-77
2021/03/17 05:59:01;;;;;;;;;;;;;;;9.25;43.77;101877.34;4833093;29;19936;-77
2021/03/17 06:01:28;;;;;;;;;;;;;;;9.29;42.70;101878.22;4830346;29;19929;-77
2021/03/17 06:03:56;;;;;;;;;;;;;;;9.33;42.37;101887.88;4832029;29;19935;-77
2021/03/17 06:06:25;;;;;;;;;;;;;;;9.40;41.72;101878.16;4823833;29;19937;-78
2021/03/17 06:08:55;;;;;;;;;;;;;;;9.44;40.82;101874.63;4826651;29;19940;-77
2021/03/17 06:11:22;;;;;;;;;;;;;;;9.44;40.27;101872.88;4826487;29;20441;-78
2021/03/17 06:13:50;;;;;;;;;;;;;;;9.46;39.77;101871.09;4821976;29;20307;-78
2021/03/17 06:16:20;;;;;;;;;;;;;;;9.64;39.36;101879.81;4825222;29;20258;-77
2021/03/17 06:18:51;;;;;;;;;;;;;;;9.85;38.31;101880.56;4818089;29;19943;-78
2021/03/17 06:21:18;;;;;;;;;;;;;;;9.85;38.15;101876.16;4824353;29;20305;-77
2021/03/17 06:23:45;;;;;;;;;;;;;;;9.78;39.29;101880.63;4829379;29;20437;-80
2021/03/17 06:26:12;;;;;;;;;;;;;;;9.83;38.89;101885.84;4821692;29;19940;-79
2021/03/17 06:28:46;;;;;;;;;;;;;;;9.91;39.19;101885.81;4823921;29;19940;-79
2021/03/17 06:31:18;;;;;;;;;;;;;;;10.01;39.17;101894.56;4819270;29;19928;-79
2021/03/17 06:33:45;;;;;;;;;;;;;;;10.14;39.05;101893.59;4813058;29;20262;-80
2021/03/17 06:36:13;;;;;;;;;;;;;;;10.24;39.32;101889.09;4820243;29;20578;-79
2021/03/17 06:38:46;;;;;;;;;;;;;;;10.37;39.28;101892.56;4826039;29;20015;-78
2021/03/17 06:41:14;;;;;;;;;;;;;;;10.59;39.00;101895.91;4824320;29;19966;-81
2021/03/17 06:43:48;;;;;;;;;;;;;;;10.77;39.11;101903.66;4820141;29;19932;-81
2021/03/17 06:46:16;;;;;;;;;;;;;;;10.95;39.17;101897.31;4822980;29;19947;-79
2021/03/17 06:48:56;;;;;;;;;;;;;;;11.07;39.45;101898.97;4822731;29;19937;-81
2021/03/17 06:51:23;;;;;;;;;;;;;;;11.21;39.18;101893.47;4827893;29;19936;-79
2021/03/17 06:53:51;;;;;;;;;;;;;;;11.29;39.23;101896.94;4820544;29;19932;-78
2021/03/17 06:56:20;;;;;;;;;;;;;;;11.40;39.36;101893.25;4811816;29;19944;-79
2021/03/17 06:58:49;;;;;;;;;;;;;;;11.56;38.95;101905.44;4828379;29;20286;-78
2021/03/17 07:01:24;;;;;;;;;;;;;;;11.70;39.02;101907.91;4820337;29;20034;-78
2021/03/17 07:03:53;;;;;;;;;;;;;;;11.78;38.83;101911.31;4823610;29;20442;-78
2021/03/17 07:06:20;;;;;;;;;;;;;;;11.85;38.98;101901.50;4823519;29;20005;-79
2021/03/17 07:08:47;;;;;;;;;;;;;;;11.92;38.75;101903.19;4822525;29;19937;-79
2021/03/17 07:11:20;;;;;;;;;;;;;;;12.05;38.77;101909.19;4815781;29;19976;-79
2021/03/17 07:13:53;;;;;;;;;;;;;;;12.17;38.62;101910.78;4820297;29;20343;-78
2021/03/17 07:16:31;;;;;;;;;;;;;;;12.17;38.71;101910.78;4825217;29;20048;-78
2021/03/17 07:19:29;;;;;;;;;;;;;;;12.29;38.89;101910.59;4827478;29;20041;-78
2021/03/17 07:22:03;;;;;;;;;;;;;;;12.34;38.94;101918.47;4830780;29;20355;-79
2021/03/17 07:24:30;;;;;;;;;;;;;;;12.38;38.82;101914.00;4819835;29;19993;-78
2021/03/17 07:27:11;;;;;;;;;;;;;;;12.53;38.72;101918.16;4823764;29;19941;-78
2021/03/17 07:29:38;;;;;;;;;;;;;;;12.68;38.58;101917.03;4818007;29;19976;-77
2021/03/17 07:32:05;;;;;;;;;;;;;;;12.91;38.05;101914.84;4816590;29;20379;-77
2021/03/17 07:34:33;;;;;;;;;;;;;;;13.19;37.74;101918.75;4823848;29;19941;-77
2021/03/17 07:37:02;;;;;;;;;;;;;;;13.54;37.23;101925.16;4822047;29;19951;-77
2021/03/17 07:39:30;;;;;;;;;;;;;;;13.84;36.66;101925.41;4823643;29;19940;-76
2021/03/17 07:41:59;;;;;;;;;;;;;;;14.10;36.31;101927.47;4819662;29;19936;-77
2021/03/17 07:44:26;;;;;;;;;;;;;;;14.42;35.81;101931.16;4799081;29;19929;-77
2021/03/17 07:46:55;;;;;;;;;;;;;;;14.69;35.42;101924.28;4823003;29;20416;-77
2021/03/17 07:49:40;;;;;;;;;;;;;;;15.04;35.26;101934.94;4823743;29;19943;-77
2021/03/17 07:52:09;;;;;;;;;;;;;;;15.37;34.71;101932.22;4823570;29;19962;-77
2021/03/17 07:54:36;;;;;;;;;;;;;;;15.66;34.33;101939.38;4822057;29;20289;-77
2021/03/17 07:57:04;;;;;;;;;;;;;;;15.98;33.96;101937.53;4801905;29;20047;-78
2021/03/17 07:59:31;;;;;;;;;;;;;;;16.27;33.54;101936.63;4810286;29;20287;-77
2021/03/17 08:01:59;;;;;;;;;;;;;;;16.54;33.04;101941.97;4819184;29;20407;-77
2021/03/17 08:04:28;;;;;;;;;;;;;;;16.86;32.86;101934.69;4822099;29;20378;-77
2021/03/17 08:06:56;;;;;;;;;;;;;;;17.11;32.46;101936.47;4823281;29;19933;-77
2021/03/17 08:09:23;;;;;;;;;;;;;;;17.31;32.30;101938.47;4822130;29;20035;-77
2021/03/17 08:11:50;;;;;;;;;;;;;;;17.71;31.86;101941.41;4813055;29;19952;-77
2021/03/17 08:14:18;;;;;;;;;;;;;;;18.10;31.16;101946.19;4821255;29;20320;-78
2021/03/17 08:16:46;;;;;;;;;;;;;;;18.49;30.67;101939.25;4821605;29;19985;-78
2021/03/17 08:19:19;;;;;;;;;;;;;;;18.95;30.19;101945.38;4818270;29;19936;-78
2021/03/17 08:21:48;;;;;;;;;;;;;;;19.33;29.62;101952.63;4820789;29;20311;-77
2021/03/17 08:24:31;;;;;;;;;;;;;;;19.77;29.27;101955.06;4811353;29;19932;-77
2021/03/17 08:26:58;;;;;;;;;;;;;;;19.43;29.93;101950.41;4796723;29;19979;-77
2021/03/17 08:29:35;;;;;;;;;;;;;;;20.10;29.01;101956.25;4772277;29;19936;-77
2021/03/17 08:32:03;;;;;;;;;;;;;;;20.54;28.20;101956.75;4780241;29;19933;-77
2021/03/17 08:34:32;;;;;;;;;;;;;;;20.82;28.08;101951.81;4785559;29;19971;-77
2021/03/17 08:37:00;;;;;;;;;;;;;;;20.97;27.88;101959.09;4779444;29;19940;-77
2021/03/17 08:39:40;;;;;;;;;;;;;;;20.44;29.13;101959.97;4792138;29;19928;-77
2021/03/17 08:42:07;;;;;;;;;;;;;;;19.87;30.37;101953.72;4807508;29;19939;-77
2021/03/17 08:44:43;;;;;;;;;;;;;;;19.56;30.92;101963.19;4816317;29;20319;-77
2021/03/17 08:47:14;;;;;;;;;;;;;;;19.31;31.41;101963.44;4817317;29;19933;-77
2021/03/17 08:49:42;;;;;;;;;;;;;;;19.16;31.66;101969.47;4819252;29;20008;-77
2021/03/17 08:52:11;;;;;;;;;;;;;;;19.10;31.85;101967.94;4820832;29;20219;-77
2021/03/17 08:54:59;;;;;;;;;;;;;;;19.11;31.87;101977.75;4811632;29;20180;-77
2021/03/17 08:57:56;;;;;;;;;;;;;;;18.99;32.21;101964.84;4822978;29;19936;-77
2021/03/17 09:00:56;;;;;;;;;;;;;;;18.97;32.29;101970.28;4788506;29;20035;-77
2021/03/17 09:03:50;;;;;;;;;;;;;;;19.12;32.09;101970.56;4824676;29;19936;-77
2021/03/17 09:06:20;;;;;;;;;;;;;;;19.15;31.96;101979.34;4819014;29;20434;-77
2021/03/17 09:08:48;;;;;;;;;;;;;;;19.27;31.79;101972.56;4812860;29;19937;-77
2021/03/17 09:11:34;;;;;;;;;;;;;;;19.57;31.51;101975.66;4819279;29;19939;-77
2021/03/17 09:14:02;;;;;;;;;;;;;;;19.71;31.20;101980.41;4824211;29;19933;-77
2021/03/17 09:16:29;;;;;;;;;;;;;;;19.61;31.21;101980.88;4827362;29;19936;-77
2021/03/17 09:19:03;;;;;;;;;;;;;;;19.69;31.19;101993.00;4823037;29;19937;-77
2021/03/17 09:21:31;;;;;;;;;;;;;;;20.10;30.72;101988.50;4818446;29;20043;-77
2021/03/17 09:23:58;;;;;;;;;;;;;;;19.89;31.13;101988.56;4863470;24;20490;-77
2021/03/17 09:26:29;;;;;;;;;;;;;;;21.68;28.14;101981.38;4824472;29;19928;-78
2021/03/17 09:28:56;;;;;;;;;;;;;;;20.92;28.94;101985.34;4827926;29;21819;-78
2021/03/17 09:31:23;;;;;;;;;;;;;;;20.27;29.82;101995.75;4825022;29;19937;-77
2021/03/17 09:33:50;;;;;;;;;;;;;;;20.38;28.94;101998.75;4815982;29;19932;-77
2021/03/17 09:36:18;;;;;;;;;;;;;;;20.24;28.75;102003.00;4825056;29;20482;-77
2021/03/17 09:38:48;;;;;;;;;;;;;;;20.02;29.04;101996.91;4825605;29;19936;-77
2021/03/17 09:41:16;;;;;;;;;;;;;;;23.01;24.33;101990.84;4827857;29;19940;-76
2021/03/17 09:43:57;;;;;;;;;;;;;;;26.61;19.88;101989.19;4824257;29;20338;-76
2021/03/17 09:46:27;;;;;;;;;;;;;;;27.60;18.61;101995.97;4827738;29;19933;-76
2021/03/17 09:48:56;;;;;;;;;;;;;;;28.38;18.13;101993.31;4823997;29;20149;-76
2021/03/17 09:51:24;;;;;;;;;;;;;;;29.90;16.39;101985.69;4822605;29;19947;-76
2021/03/17 09:53:53;;;;;;;;;;;;;;;30.95;15.48;101992.38;4829490;29;20386;-77
2021/03/17 09:56:32;;;;;;;;;;;;;;;31.84;15.10;101982.91;4827005;29;20413;-77
2021/03/17 09:59:12;;;;;;;;;;;;;;;32.59;14.60;102001.00;4832274;29;19940;-77
2021/03/17 10:01:46;;;;;;;;;;;;;;;34.00;13.52;101984.44;4827717;29;20457;-78
2021/03/17 10:04:17;;;;;;;;;;;;;;;35.46;11.98;101982.03;4820097;29;19936;-77
2021/03/17 10:06:44;;;;;;;;;;;;;;;36.26;11.83;101988.38;4828865;29;20755;-77
2021/03/17 10:09:12;;;;;;;;;;;;;;;33.95;13.52;101985.97;4826436;29;19948;-77
2021/03/17 10:11:41;;;;;;;;;;;;;;;33.59;14.61;101998.84;4832435;29;19955;-77
2021/03/17 10:14:13;;;;;;;;;;;;;;;32.82;15.08;101998.69;4829333;29;19934;-77
2021/03/17 10:16:40;;;;;;;;;;;;;;;36.08;12.22;101985.91;4825721;29;20019;-76
2021/03/17 10:19:07;;;;;;;;;;;;;;;35.81;12.62;101994.44;4822217;29;20204;-77
2021/03/17 10:21:46;;;;;;;;;;;;;;;34.51;14.04;101995.34;4826888;29;19937;-77
2021/03/17 10:24:14;;;;;;;;;;;;;;;34.12;14.28;101995.97;4829955;29;19955;-77
2021/03/17 10:26:41;;;;;;;;;;;;;;;34.14;14.54;101998.53;4825875;29;19943;-77
2021/03/17 10:29:08;;;;;;;;;;;;;;;33.99;14.72;101992.81;4825075;29;19937;-77
2021/03/17 10:31:36;;;;;;;;;;;;;;;34.86;13.81;101997.97;4820802;29;19928;-77
2021/03/17 10:34:13;;;;;;;;;;;;;;;34.72;14.57;102000.34;4821491;29;20051;-77
2021/03/17 10:36:40;;;;;;;;;;;;;;;33.97;15.09;101998.50;4817179;29;20317;-77
2021/03/17 10:39:07;;;;;;;;;;;;;;;33.68;15.58;101988.75;4833637;29;20000;-77
2021/03/17 10:41:41;;;;;;;;;;;;;;;32.23;17.09;101993.66;4832431;29;19940;-77
2021/03/17 10:44:12;;;;;;;;;;;;;;;31.72;17.97;101995.09;4828915;29;23130;-77
2021/03/17 10:46:54;;;;;;;;;;;;;;;31.97;17.73;101987.16;4827211;29;20259;-77
2021/03/17 10:49:21;;;;;;;;;;;;;;;33.17;16.45;101996.00;4830791;29;20078;-77
2021/03/17 10:51:53;;;;;;;;;;;;;;;32.08;17.80;102000.63;4832320;29;19932;-77
2021/03/17 10:54:26;;;;;;;;;;;;;;;34.36;15.47;101991.59;4835241;29;19933;-77
2021/03/17 10:57:08;;;;;;;;;;;;;;;33.99;16.03;101993.69;4829084;29;20032;-76
2021/03/17 10:59:36;;;;;;;;;;;;;;;32.64;17.43;101993.19;4831348;29;20694;-77
2021/03/17 11:02:15;;;;;;;;;;;;;;;29.88;20.73;101998.59;4825826;29;19936;-76
2021/03/17 11:05:01;;;;;;;;;;;;;;;32.87;17.19;101998.19;4832334;29;19951;-76
2021/03/17 11:07:28;;;;;;;;;;;;;;;32.09;18.25;101992.25;4832138;29;20039;-76
2021/03/17 11:09:56;;;;;;;;;;;;;;;30.86;19.71;101991.38;4830930;29;19944;-76
2021/03/17 11:12:28;;;;;;;;;;;;;;;30.60;20.12;101997.44;4832997;29;20581;-77
2021/03/17 11:14:55;;;;;;;;;;;;;;;29.37;21.69;102003.09;4824943;29;19943;-76
2021/03/17 11:17:22;;;;;;;;;;;;;;;32.43;17.97;101994.34;4829577;29;20129;-76
2021/03/17 11:19:57;;;;;;;;;;;;;;;32.37;17.95;101986.75;4833305;29;19955;-76
2021/03/17 11:22:32;;;;;;;;;;;;;;;35.89;14.49;101988.94;4829788;29;19997;-77
2021/03/17 11:25:03;;;;;;;;;;;;;;;37.95;12.55;101977.88;4828873;29;20447;-77
2021/03/17 11:27:31;;;;;;;;;;;;;;;37.13;13.44;101987.13;4824235;29;19932;-77
2021/03/17 11:29:59;;;;;;;;;;;;;;;34.72;15.40;101991.25;4824749;29;20035;-76
2021/03/17 11:32:29;;;;;;;;;;;;;;;34.33;16.47;101987.28;4834610;29;20337;-76
2021/03/17 11:34:56;;;;;;;;;;;;;;;34.59;16.12;101983.50;4831145;29;19941;-77
2021/03/17 11:37:23;;;;;;;;;;;;;;;35.79;14.57;101985.53;4834828;29;20502;-77
2021/03/17 11:39:50;;;;;;;;;;;;;;;36.76;14.00;102000.75;4830507;29;19932;-77
2021/03/17 11:42:16;;;;;;;;;;;;;;;33.29;17.38;101994.72;4826630;29;20777;-76
2021/03/17 11:44:44;;;;;;;;;;;;;;;33.65;17.19;102001.94;4829506;29;19929;-76
2021/03/17 11:47:12;;;;;;;;;;;;;;;34.25;16.79;101984.47;4832610;29;19936;-76
2021/03/17 11:49:40;;;;;;;;;;;;;;;33.43;17.46;101996.84;4832285;29;19932;-76
2021/03/17 11:52:07;;;;;;;;;;;;;;;34.06;16.92;101992.00;4830854;29;20027;-76
2021/03/17 11:54:34;;;;;;;;;;;;;;;35.24;16.03;101992.75;4829643;29;19933;-76
2021/03/17 11:57:01;;;;;;;;;;;;;;;38.59;12.64;101991.94;4822811;29;19936;-76
2021/03/17 11:59:29;;;;;;;;;;;;;;;40.64;11.20;101997.03;4834333;29;19929;-77
2021/03/17 12:01:57;;;;;;;;;;;;;;;41.71;10.31;101999.59;4828457;29;19937;-76
2021/03/17 12:04:24;;;;;;;;;;;;;;;41.13;11.14;101994.88;4829500;29;19939;-77
2021/03/17 12:06:51;;;;;;;;;;;;;;;37.65;14.03;102001.91;4835250;29;20291;-77
2021/03/17 12:09:19;;;;;;;;;;;;;;;35.35;16.66;102005.28;4824912;29;19976;-77
2021/03/17 12:11:46;;;;;;;;;;;;;;;36.19;15.72;102010.28;4827997;29;19936;-77
2021/03/17 12:14:13;;;;;;;;;;;;;;;33.64;18.45;102012.06;4824639;29;19944;-77
2021/03/17 12:16:40;;;;;;;;;;;;;;;32.06;19.94;102013.63;4823547;29;20028;-76
2021/03/17 12:19:08;;;;;;;;;;;;;;;31.26;21.17;102020.38;4828720;29;20224;-76
2021/03/17 12:21:36;;;;;;;;;;;;;;;30.58;22.15;102017.72;4823572;29;19932;-77
2021/03/17 12:24:02;;;;;;;;;;;;;;;30.17;22.63;102009.59;4821411;29;20039;-76
2021/03/17 12:26:32;;;;;;;;;;;;;;;30.13;22.44;102017.19;4822885;29;19937;-76
2021/03/17 12:28:58;;;;;;;;;;;;;;;30.05;22.75;102014.31;4824478;29;19932;-76
2021/03/17 12:31:25;;;;;;;;;;;;;;;37.50;14.56;102010.19;4826683;29;20032;-76
2021/03/17 12:33:52;;;;;;;;;;;;;;;41.33;10.99;102005.91;4823607;29;19941;-76
2021/03/17 12:36:20;;;;;;;;;;;;;;;43.45;9.89;102012.19;4825059;29;20433;-77
2021/03/17 12:38:47;;;;;;;;;;;;;;;37.03;15.05;102012.22;4821844;29;20110;-77
2021/03/17 12:41:14;;;;;;;;;;;;;;;40.14;12.62;102019.56;4823282;29;19967;-76
2021/03/17 12:44:06;;;;;;;;;;;;;;;36.05;15.90;102017.41;4827661;29;19933;-77
2021/03/17 12:46:35;;;;;;;;;;;;;;;32.99;19.25;102023.44;4820367;29;20027;-77
2021/03/17 12:49:01;;;;;;;;;;;;;;;31.70;20.75;102024.44;4829245;29;19940;-76
2021/03/17 12:51:29;;;;;;;;;;;;;;;30.51;22.42;102039.25;4809264;29;19947;-76
2021/03/17 12:53:56;;;;;;;;;;;;;;;29.77;23.47;102041.31;4822153;29;20367;-76
2021/03/17 12:56:23;;;;;;;;;;;;;;;29.34;23.97;102042.38;4812438;29;19937;-76
2021/03/17 12:58:50;;;;;;;;;;;;;;;28.76;24.63;102050.94;4827713;29;19943;-77
2021/03/17 13:01:16;;;;;;;;;;;;;;;28.46;24.83;102047.94;4823299;29;19970;-76